Fort Worth, TX (76111)

11:59 PM CDT on April 17, 2015 (GMT -0500)
HADS | | Change Station
CLOSE
Current Station
Personal Weather Station
Location: Fort Worth, TX
Elevation: 520 ft
Nearby Weather Stations

Elev 520 ft 32.76 °N, 97.33 °W | Updated 44 minutes ago

Overcast
Overcast
64 °F
Feels Like 64 °F
N
2
Wind Variable Wind from East
Gusts 0.0 mph

Today
High -- | Low -- °F
--% Chance of Precip.
Yesterday
High -- | Low -- °F
Precip. -- in
6:57 AM 8:00 PM
Waning Crescent, 0% visible
Pressure 29.95 in
Visibility 10.0 miles
Clouds Scattered Clouds 4700 ft
Overcast 8000 ft
Dew Point 60 °F
Humidity 88%
Rainfall in
Snow Depth Not available.
UV 0 out of 12
Pollen 8.20 out of 12
Air Quality Not available.
Flu Activity Local Activity
METAR KFTW 180453Z 19003KT 10SM SCT047 OVC080 18/17 A2996 RMK AO2 SLP140 T01780167

More Conditions Fewer Conditions

Pressure 29.95 in
Visibility 10.0 miles
Clouds Scattered Clouds 4700 ft
Overcast 8000 ft
Dew Point 60 °F
Humidity 88%
Rainfall in
Snow Depth Not available.
UV 0 out of 12
Pollen 8.20 out of 12
Air Quality Not available.
Flu Activity Local Activity
METAR KFTW 180453Z 19003KT 10SM SCT047 OVC080 18/17 A2996 RMK AO2 SLP140 T01780167

More Conditions Fewer Conditions

Nowcast | as of 11:22 PM CDT on April 17, 2015

Showers and some embedded thunderstorms will continue to affect areas mainly east of I-35 through 3 am. Some isolated showers will occur farther to the west. Locally heavy rain and cloud to ground lightning will accompany some of the storms as they move east at 15 mph. Runoff from heavy rain may result in some flooding issues across parts of falls...northwestern Robertson and northeastern Milam counties. Otherwise...expect cloudy skies overnight with temperatures remaining in the upper 50s to upper 60s.

×

10-Day Weather Forecast

Almanac

Astronomy

Apr. 17, 2015 Rise Set
Actual Time
Civil Twilight
Nautical Twilight
Astronomical Twilight
Moon
Length of Visible Light
Length of Day
Tomorrow will be .
, % of the Moon is Illuminated

Today's Extremes

State Highs State Lows

Community

WunderPhotos

Upload Photos

1,814,342 photos uploaded!

WunderBlogs® & News

Nearby

Air Quality

  Air Quality AQ Index Pollutant
Not available.

Snow Depth

Station Depth Elevation

Earthquake Activity

City Distance Mag. Time & Date
Minimum magnitude displayed is 2.5.

Coastal Water Temperatures

Place Temperature

Stations

Nearby Weather Stations

Station Location Temp. Windchill Dew Point Humidity Wind Precip. Elev Updated Type